createdAt,value
2023-04-23T00:00:37.351Z,28.83
2023-04-23T00:03:43.200Z,27.33
2023-04-23T00:06:48.185Z,20.63
2023-04-23T00:09:56.290Z,27.13
2023-04-23T00:12:59.354Z,33.40
2023-04-23T00:16:01.713Z,30.05
2023-04-23T00:19:03.905Z,28.85
2023-04-23T00:22:06.414Z,22.08
2023-04-23T00:25:09.648Z,25.05
2023-04-23T00:28:11.690Z,21.77
2023-04-23T00:31:13.828Z,34.78
2023-04-23T00:34:16.148Z,28.15
2023-04-23T00:37:18.404Z,35.78
2023-04-23T00:40:21.020Z,30.45
2023-04-23T00:43:24.292Z,27.23
2023-04-23T00:46:27.037Z,26.10
2023-04-23T00:49:30.042Z,25.98
2023-04-23T00:52:32.327Z,27.95
2023-04-23T00:55:34.727Z,27.48
2023-04-23T00:58:38.025Z,19.00
2023-04-23T01:01:41.328Z,24.67
2023-04-23T01:04:51.278Z,22.13
2023-04-23T01:07:54.395Z,22.45
2023-04-23T01:10:56.465Z,19.60
2023-04-23T01:13:59.508Z,23.00
2023-04-23T01:17:03.264Z,25.25
2023-04-23T01:20:06.819Z,21.05
2023-04-23T01:23:08.886Z,26.30
2023-04-23T01:26:11.955Z,27.27
2023-04-23T01:29:14.455Z,25.30
2023-04-23T01:32:17.620Z,27.02
2023-04-23T01:35:19.799Z,23.92
2023-04-23T01:38:22.854Z,25.90
2023-04-23T01:41:25.772Z,28.70
2023-04-23T01:44:27.954Z,37.60
2023-04-23T01:47:30.191Z,22.25
2023-04-23T01:50:32.370Z,20.75
2023-04-23T01:53:34.419Z,19.92
2023-04-23T01:56:36.608Z,20.10
2023-04-23T01:59:40.505Z,27.90
2023-04-23T02:02:44.554Z,20.52
2023-04-23T02:05:46.883Z,20.08
2023-04-23T02:08:49.953Z,19.08
2023-04-23T02:11:51.978Z,22.20
2023-04-23T02:14:54.646Z,25.55
2023-04-23T02:17:56.956Z,27.48
2023-04-23T02:21:00.031Z,21.77
2023-04-23T02:24:02.486Z,21.10
2023-04-23T02:27:05.874Z,20.63
2023-04-23T02:30:09.706Z,25.83
2023-04-23T02:33:12.664Z,22.40
2023-04-23T02:36:14.862Z,34.42
2023-04-23T02:39:17.134Z,25.33
2023-04-23T02:42:19.212Z,27.95
2023-04-23T02:45:21.490Z,27.48
2023-04-23T02:48:27.497Z,31.13
2023-04-23T02:51:29.861Z,21.80
2023-04-23T02:54:32.658Z,20.20
2023-04-23T02:57:34.904Z,19.08
2023-04-23T03:00:37.087Z,30.75
2023-04-23T03:03:39.974Z,24.35
2023-04-23T03:06:42.799Z,25.65
2023-04-23T03:09:44.873Z,23.85
2023-04-23T03:12:47.144Z,23.52
2023-04-23T03:15:51.350Z,21.85
2023-04-23T03:18:53.452Z,20.00
2023-04-23T03:21:55.925Z,19.40
2023-04-23T03:24:58.308Z,22.77
2023-04-23T03:28:01.084Z,24.40
2023-04-23T03:31:04.041Z,20.38
2023-04-23T03:34:06.271Z,32.53
2023-04-23T03:37:10.981Z,29.10
2023-04-23T03:40:14.413Z,24.83
2023-04-23T03:43:18.566Z,40.20
2023-04-23T03:46:40.148Z,24.00
2023-04-23T03:49:45.432Z,19.98
2023-04-23T03:52:48.815Z,23.80
2023-04-23T03:56:05.924Z,18.92
2023-04-23T03:59:14.210Z,27.70
2023-04-23T04:02:16.692Z,30.98
2023-04-23T04:05:19.019Z,29.33
2023-04-23T04:08:26.281Z,43.88
2023-04-23T04:11:28.450Z,24.25
2023-04-23T04:14:35.547Z,14.82
2023-04-23T04:17:38.267Z,20.23
2023-04-23T04:20:45.853Z,22.00
2023-04-23T04:23:48.297Z,20.58
2023-04-23T04:26:52.754Z,17.55
2023-04-23T04:29:54.954Z,17.92
2023-04-23T04:32:57.512Z,24.90
2023-04-23T04:36:00.705Z,24.30
2023-04-23T04:39:03.700Z,34.88
2023-04-23T04:42:07.453Z,21.75
2023-04-23T04:45:10.746Z,31.50
2023-04-23T04:48:14.880Z,34.13
2023-04-23T04:51:17.460Z,23.30
2023-04-23T04:54:19.631Z,37.63
2023-04-23T04:57:23.346Z,25.00
2023-04-23T05:00:30.366Z,24.40
2023-04-23T05:03:33.049Z,17.30
2023-04-23T05:06:35.443Z,25.27
2023-04-23T05:09:37.620Z,19.30
2023-04-23T05:12:41.621Z,28.27
2023-04-23T05:15:43.747Z,24.50
2023-04-23T05:18:46.843Z,26.10
2023-04-23T05:21:49.021Z,24.42
2023-04-23T05:24:51.082Z,16.77
2023-04-23T05:27:53.791Z,29.92
2023-04-23T05:30:57.675Z,17.65
2023-04-23T05:33:59.741Z,22.15
2023-04-23T05:37:02.544Z,22.17
2023-04-23T05:40:07.026Z,22.65
2023-04-23T05:43:09.514Z,26.42
2023-04-23T05:46:11.796Z,31.17
2023-04-23T05:49:13.909Z,28.17
2023-04-23T05:52:16.478Z,24.45
2023-04-23T05:55:20.510Z,26.60
2023-04-23T05:58:23.762Z,28.83
2023-04-23T06:01:26.128Z,26.38
2023-04-23T06:04:28.637Z,20.20
2023-04-23T06:07:32.771Z,15.70
2023-04-23T06:10:34.917Z,23.63
2023-04-23T06:13:44.059Z,18.02
2023-04-23T06:16:46.667Z,30.17
2023-04-23T06:19:48.710Z,26.33
2023-04-23T06:22:50.902Z,34.05
2023-04-23T06:25:53.062Z,13.35
2023-04-23T06:28:55.190Z,15.68
2023-04-23T06:32:13.852Z,22.92
2023-04-23T06:35:15.981Z,19.40
2023-04-23T06:38:18.990Z,32.72
2023-04-23T06:41:21.356Z,22.38
2023-04-23T06:44:34.700Z,13.50
2023-04-23T06:47:38.378Z,13.93
2023-04-23T06:50:40.702Z,21.75
2023-04-23T06:53:42.870Z,18.23
2023-04-23T06:56:44.991Z,24.40
2023-04-23T06:59:47.750Z,21.58
2023-04-23T07:02:51.064Z,29.38
2023-04-23T07:05:54.403Z,22.98
2023-04-23T07:08:56.475Z,24.55
2023-04-23T07:11:58.584Z,26.65
2023-04-23T07:15:00.962Z,29.88
2023-04-23T07:18:03.937Z,23.50
2023-04-23T07:21:06.548Z,25.58
2023-04-23T07:24:08.630Z,28.08
2023-04-23T07:27:10.885Z,18.88
2023-04-23T07:30:13.536Z,36.53
2023-04-23T07:33:15.711Z,32.78
2023-04-23T07:36:18.051Z,29.17
2023-04-23T07:39:20.212Z,26.85
2023-04-23T07:42:22.274Z,19.50
2023-04-23T07:45:24.425Z,26.90
2023-04-23T07:48:26.663Z,28.02
2023-04-23T07:51:28.930Z,24.38
2023-04-23T07:54:30.973Z,13.80
2023-04-23T07:57:33.122Z,12.63
2023-04-23T08:00:37.577Z,13.40
2023-04-23T08:03:39.937Z,25.95
2023-04-23T08:06:42.701Z,12.70
2023-04-23T08:09:46.817Z,14.73
2023-04-23T08:12:49.202Z,15.73
2023-04-23T08:15:52.723Z,17.27
2023-04-23T08:19:05.011Z,26.40
2023-04-23T08:22:11.035Z,20.30
2023-04-23T08:25:14.482Z,26.20
2023-04-23T08:28:16.639Z,13.73
2023-04-23T08:31:26.517Z,21.55
2023-04-23T08:34:29.230Z,14.23
2023-04-23T08:37:32.927Z,18.50
2023-04-23T08:40:38.001Z,25.85
2023-04-23T08:44:04.790Z,20.55
2023-04-23T08:47:11.120Z,32.00
2023-04-23T08:50:18.367Z,19.77
2023-04-23T08:53:25.880Z,15.07
2023-04-23T08:56:28.214Z,9.10
2023-04-23T08:59:34.563Z,8.40
2023-04-23T09:02:38.488Z,17.33
2023-04-23T09:05:42.948Z,19.40
2023-04-23T09:08:45.857Z,21.50
2023-04-23T09:11:47.955Z,15.50
2023-04-23T09:14:51.138Z,13.57
2023-04-23T09:17:53.670Z,12.57
2023-04-23T09:20:55.895Z,7.72
2023-04-23T09:23:58.015Z,12.65
2023-04-23T09:27:01.339Z,11.65
2023-04-23T09:30:12.064Z,18.00
2023-04-23T09:33:16.646Z,14.18
2023-04-23T09:36:22.709Z,15.75
2023-04-23T09:39:25.045Z,14.82
2023-04-23T09:42:28.782Z,11.43
2023-04-23T09:45:32.905Z,20.02
2023-04-23T09:48:43.134Z,11.75
2023-04-23T09:51:49.490Z,12.52
2023-04-23T09:54:51.694Z,4.60
2023-04-23T09:57:55.112Z,5.57
2023-04-23T10:01:07.944Z,4.85
2023-04-23T10:04:13.553Z,13.90
2023-04-23T10:07:20.043Z,16.05
2023-04-23T10:10:22.642Z,12.77
2023-04-23T10:13:25.921Z,17.13
2023-04-23T10:16:35.513Z,7.60
2023-04-23T10:19:45.250Z,2.63
2023-04-23T10:22:47.942Z,4.50
2023-04-23T10:25:53.279Z,5.00
2023-04-23T10:28:56.813Z,6.07
2023-04-23T10:32:04.279Z,13.77
2023-04-23T10:35:08.081Z,12.10
2023-04-23T10:38:10.548Z,5.35
2023-04-23T10:41:19.652Z,11.00
2023-04-23T10:44:45.063Z,12.75
2023-04-23T10:47:46.386Z,4.13
2023-04-23T10:51:09.850Z,3.83
2023-04-23T10:54:20.115Z,8.48
2023-04-23T10:57:22.310Z,8.25
2023-04-23T11:00:24.769Z,11.27
2023-04-23T11:03:31.802Z,6.78
2023-04-23T11:07:07.777Z,3.05
2023-04-23T11:10:14.450Z,8.30
2023-04-23T11:13:22.818Z,10.52
2023-04-23T11:16:30.415Z,8.70
2023-04-23T11:19:38.420Z,7.88
2023-04-23T11:22:46.562Z,10.27
2023-04-23T11:25:48.766Z,10.88
2023-04-23T11:28:54.784Z,4.38
2023-04-23T11:32:02.577Z,7.00
2023-04-23T11:35:07.824Z,7.53
2023-04-23T11:38:10.638Z,11.30
2023-04-23T11:41:12.772Z,11.57
2023-04-23T11:44:14.921Z,26.13
2023-04-23T11:47:21.461Z,17.90
2023-04-23T11:50:27.555Z,8.63
2023-04-23T11:53:29.689Z,7.47
2023-04-23T11:56:35.785Z,3.22
2023-04-23T11:59:38.117Z,9.48
2023-04-23T12:02:56.597Z,19.45
2023-04-23T12:05:59.399Z,3.42
2023-04-23T12:09:01.472Z,19.73
2023-04-23T12:12:06.017Z,12.02
2023-04-23T12:15:09.074Z,11.27
2023-04-23T12:18:12.909Z,6.38
2023-04-23T12:21:15.565Z,12.63
2023-04-23T12:24:18.037Z,15.30
2023-04-23T12:27:23.996Z,13.13
2023-04-23T12:30:30.500Z,21.10
2023-04-23T12:33:32.556Z,3.03
2023-04-23T12:36:36.896Z,2.88
2023-04-23T12:39:38.948Z,3.50
2023-04-23T12:42:42.390Z,10.15
2023-04-23T12:45:47.682Z,8.57
2023-04-23T12:48:49.824Z,6.20
2023-04-23T12:51:52.872Z,2.88
2023-04-23T12:54:56.892Z,5.60
2023-04-23T12:58:02.784Z,3.55
2023-04-23T13:01:04.970Z,20.27
2023-04-23T13:04:07.099Z,6.10
2023-04-23T13:07:11.796Z,9.68
2023-04-23T13:10:13.916Z,7.50
2023-04-23T13:13:16.053Z,16.13
2023-04-23T13:16:21.290Z,14.68
2023-04-23T13:19:23.437Z,16.23
2023-04-23T13:22:29.072Z,12.55
2023-04-23T13:25:31.274Z,2.53
2023-04-23T13:28:33.337Z,7.10
2023-04-23T13:31:38.399Z,20.23
2023-04-23T13:34:40.714Z,10.73
2023-04-23T13:37:48.749Z,9.23
2023-04-23T13:40:50.935Z,8.25
2023-04-23T13:43:52.963Z,3.67
2023-04-23T13:46:59.216Z,4.65
2023-04-23T13:50:09.857Z,6.47
2023-04-23T13:53:15.177Z,21.92
2023-04-23T13:56:18.272Z,19.70
2023-04-23T13:59:22.555Z,17.58
2023-04-23T14:02:24.715Z,7.65
2023-04-23T14:05:26.863Z,14.27
2023-04-23T14:08:30.757Z,15.90
2023-04-23T14:11:32.936Z,10.00
2023-04-23T14:14:35.212Z,7.43
2023-04-23T14:17:39.372Z,4.03
2023-04-23T14:20:42.303Z,7.93
2023-04-23T14:23:55.501Z,2.20
2023-04-23T14:26:58.110Z,28.15
2023-04-23T14:30:05.604Z,3.88
2023-04-23T14:33:07.852Z,10.17
2023-04-23T14:36:13.234Z,19.88
2023-04-23T14:39:17.204Z,23.80
2023-04-23T14:42:19.599Z,28.10
2023-04-23T14:45:21.722Z,9.50
2023-04-23T14:48:23.788Z,23.63
2023-04-23T14:51:27.529Z,13.50
2023-04-23T14:54:29.645Z,7.45
2023-04-23T14:57:31.807Z,13.13
2023-04-23T15:00:34.094Z,5.53
2023-04-23T15:03:37.067Z,5.47
2023-04-23T15:06:40.855Z,6.50
2023-04-23T15:09:43.512Z,11.15
2023-04-23T15:12:56.042Z,8.18
2023-04-23T15:16:03.456Z,17.25
2023-04-23T15:19:12.432Z,12.05
2023-04-23T15:22:14.983Z,14.45
2023-04-23T15:25:18.948Z,11.45
2023-04-23T15:28:21.658Z,7.93
2023-04-23T15:31:27.743Z,14.82
2023-04-23T15:34:36.705Z,2.80
2023-04-23T15:37:40.488Z,11.10
2023-04-23T15:40:42.764Z,21.50
2023-04-23T15:43:44.857Z,8.65
2023-04-23T15:46:47.009Z,2.03
2023-04-23T15:49:49.852Z,7.20
2023-04-23T15:52:52.050Z,10.10
2023-04-23T15:55:54.505Z,12.20
2023-04-23T15:58:57.297Z,8.93
2023-04-23T16:02:06.970Z,25.02
2023-04-23T16:05:09.881Z,7.13
2023-04-23T16:08:12.639Z,12.07
2023-04-23T16:11:15.019Z,10.77
2023-04-23T16:14:21.915Z,13.27
2023-04-23T16:17:24.887Z,9.52
2023-04-23T16:20:28.668Z,11.23
2023-04-23T16:23:31.162Z,7.38
2023-04-23T16:26:33.901Z,12.48
2023-04-23T16:29:36.077Z,16.58
2023-04-23T16:32:39.424Z,8.55
2023-04-23T16:35:41.884Z,13.38
2023-04-23T16:38:49.608Z,10.48
2023-04-23T16:41:51.741Z,12.50
2023-04-23T16:44:56.778Z,18.75
2023-04-23T16:49:07.457Z,6.53
2023-04-23T16:51:56.105Z,9.98
2023-04-23T16:55:43.556Z,9.52
2023-04-23T16:58:45.880Z,15.07
2023-04-23T17:01:56.585Z,7.72
2023-04-23T17:04:59.286Z,6.13
2023-04-23T17:08:01.930Z,12.68
2023-04-23T17:11:07.477Z,33.05
2023-04-23T17:14:09.692Z,12.15
2023-04-23T17:17:11.755Z,27.90
2023-04-23T17:20:15.909Z,10.63
2023-04-23T17:23:21.506Z,13.27
2023-04-23T17:26:24.586Z,20.52
2023-04-23T17:29:26.852Z,14.10
2023-04-23T17:32:31.510Z,19.38
2023-04-23T17:35:33.638Z,20.63
2023-04-23T17:38:35.907Z,15.60
2023-04-23T17:41:38.728Z,21.17
2023-04-23T17:44:42.626Z,16.65
2023-04-23T17:47:55.215Z,20.80
2023-04-23T17:50:57.765Z,22.77
2023-04-23T17:54:02.216Z,11.68
2023-04-23T17:57:04.997Z,11.75
2023-04-23T18:00:10.009Z,10.63
2023-04-23T18:03:18.818Z,59.10
2023-04-23T18:06:22.287Z,46.25
2023-04-23T18:09:24.414Z,13.25
2023-04-23T18:12:30.885Z,11.38
2023-04-23T18:15:33.045Z,14.90
2023-04-23T18:18:35.260Z,8.32
2023-04-23T18:21:38.962Z,6.85
2023-04-23T18:24:41.445Z,11.93
2023-04-23T18:27:44.987Z,12.63
2023-04-23T18:30:47.341Z,15.38
2023-04-23T18:34:00.184Z,13.60
2023-04-23T18:37:09.854Z,16.15
2023-04-23T18:40:12.695Z,21.48
2023-04-23T18:43:25.153Z,29.67
2023-04-23T18:46:28.924Z,15.77
2023-04-23T18:49:46.740Z,10.73
2023-04-23T18:53:00.385Z,11.43
2023-04-23T18:56:10.697Z,15.10
2023-04-23T18:59:20.469Z,40.35
2023-04-23T19:02:34.366Z,16.15
2023-04-23T19:05:38.640Z,12.90
2023-04-23T19:08:42.865Z,12.82
2023-04-23T19:11:45.599Z,14.43
2023-04-23T19:14:48.399Z,13.88
2023-04-23T19:17:50.657Z,11.90
2023-04-23T19:20:52.959Z,11.43
2023-04-23T19:23:56.874Z,15.60
2023-04-23T19:27:01.059Z,12.93
2023-04-23T19:30:10.263Z,24.75
2023-04-23T19:33:15.365Z,24.33
2023-04-23T19:36:19.704Z,22.98
2023-04-23T19:39:23.728Z,19.55
2023-04-23T19:42:25.961Z,18.30
2023-04-23T19:45:30.180Z,22.13
2023-04-23T19:48:32.897Z,28.65
2023-04-23T19:51:39.037Z,29.20
2023-04-23T19:54:49.108Z,21.20
2023-04-23T19:57:51.281Z,22.33
2023-04-23T20:00:54.499Z,25.70
2023-04-23T20:03:56.870Z,28.50
2023-04-23T20:06:59.025Z,22.13
2023-04-23T20:10:01.419Z,25.45
2023-04-23T20:13:03.724Z,24.38
2023-04-23T20:16:08.390Z,24.45
2023-04-23T20:19:13.799Z,20.33
2023-04-23T20:22:18.172Z,23.98
2023-04-23T20:25:25.750Z,23.85
2023-04-23T20:28:28.320Z,21.27
2023-04-23T20:31:31.743Z,14.77
2023-04-23T20:34:34.250Z,23.88
2023-04-23T20:37:37.047Z,25.00
2023-04-23T20:40:39.983Z,31.08
2023-04-23T20:43:43.672Z,28.77
2023-04-23T20:46:46.582Z,25.08
2023-04-23T20:49:49.937Z,23.45
2023-04-23T20:52:52.215Z,19.88
2023-04-23T20:55:57.930Z,22.65
2023-04-23T20:59:00.150Z,19.40
2023-04-23T21:02:03.734Z,28.88
2023-04-23T21:05:08.135Z,20.20
2023-04-23T21:08:11.415Z,30.88
2023-04-23T21:11:18.540Z,20.85
2023-04-23T21:14:21.289Z,18.65
2023-04-23T21:17:26.607Z,28.90
2023-04-23T21:20:29.119Z,12.88
2023-04-23T21:23:32.602Z,11.50
2023-04-23T21:26:34.866Z,12.38
2023-04-23T21:29:37.329Z,15.25
2023-04-23T21:32:39.549Z,15.57
2023-04-23T21:35:42.735Z,11.82
2023-04-23T21:38:45.409Z,17.45
2023-04-23T21:41:47.908Z,17.65
2023-04-23T21:44:53.397Z,11.75
2023-04-23T21:47:58.154Z,13.02
2023-04-23T21:51:00.560Z,11.75
2023-04-23T21:54:04.318Z,9.98
2023-04-23T21:57:06.907Z,13.05
2023-04-23T22:00:14.105Z,13.27
2023-04-23T22:03:27.937Z,22.63
2023-04-23T22:06:42.029Z,17.00
2023-04-23T22:09:44.677Z,10.63
2023-04-23T22:12:49.914Z,16.27
2023-04-23T22:15:52.438Z,15.63
2023-04-23T22:18:55.907Z,9.82
2023-04-23T22:21:58.058Z,14.15
2023-04-23T22:25:01.383Z,16.10
2023-04-23T22:28:03.883Z,9.93
2023-04-23T22:31:05.998Z,10.57
2023-04-23T22:34:08.141Z,11.15
2023-04-23T22:37:10.319Z,10.27
2023-04-23T22:40:12.922Z,9.20
2023-04-23T22:43:15.983Z,13.57
2023-04-23T22:46:18.182Z,17.80
2023-04-23T22:49:20.472Z,14.38
2023-04-23T22:52:22.767Z,12.38
2023-04-23T22:55:27.753Z,18.63
2023-04-23T22:58:30.163Z,12.90
2023-04-23T23:01:32.399Z,10.68
2023-04-23T23:04:38.044Z,12.35
2023-04-23T23:07:40.346Z,10.98
2023-04-23T23:10:43.088Z,16.42
2023-04-23T23:13:48.287Z,11.68
2023-04-23T23:16:50.404Z,10.60
2023-04-23T23:19:53.462Z,12.73
2023-04-23T23:22:55.711Z,11.45
2023-04-23T23:25:59.944Z,10.30
2023-04-23T23:29:02.404Z,12.02
2023-04-23T23:32:04.723Z,9.02
2023-04-23T23:35:08.345Z,9.68
2023-04-23T23:38:11.207Z,30.05
2023-04-23T23:41:13.414Z,15.10
2023-04-23T23:44:16.793Z,14.48
2023-04-23T23:47:19.020Z,18.73
2023-04-23T23:50:21.217Z,16.00
2023-04-23T23:53:23.227Z,15.68
2023-04-23T23:56:25.433Z,13.95
2023-04-23T23:59:27.695Z,10.90
